THR weather

Mehrabad International Airport
Tehran, Tehran Province, Iran

Public forecast

Using degrees Celsius for public forecast. Weather courtesy of forecast.io.

METAR (pilot weather report)

Retrieved 2019/06/15 20:30 UTC (0 seconds ago):

OIII 152030Z 00000KT CAVOK 28/02 Q1013 A2993

TAF (pilot weather forecast)

Retrieved 2019/06/15 18:18 UTC (2 hours ago):

TAF OIII 151715Z 1518/1624 13008KT 9999 NSC